sensor_id;sensor_type;location;lat;lon;timestamp;temperature;humidity
69626;DHT22;56847;51.984;5.088;2023-04-24T00:00:25;11.90;84.50
69626;DHT22;56847;51.984;5.088;2023-04-24T00:02:52;11.90;84.30
69626;DHT22;56847;51.984;5.088;2023-04-24T00:05:24;11.90;84.50
69626;DHT22;56847;51.984;5.088;2023-04-24T00:07:51;11.90;84.50
69626;DHT22;56847;51.984;5.088;2023-04-24T00:10:21;11.90;84.30
69626;DHT22;56847;51.984;5.088;2023-04-24T00:12:48;11.80;84.30
69626;DHT22;56847;51.984;5.088;2023-04-24T00:15:16;11.80;84.30
69626;DHT22;56847;51.984;5.088;2023-04-24T00:17:43;11.80;84.50
69626;DHT22;56847;51.984;5.088;2023-04-24T00:20:13;11.80;84.60
69626;DHT22;56847;51.984;5.088;2023-04-24T00:22:41;11.90;84.70
69626;DHT22;56847;51.984;5.088;2023-04-24T00:25:11;11.90;84.70
69626;DHT22;56847;51.984;5.088;2023-04-24T00:27:38;11.90;84.70
69626;DHT22;56847;51.984;5.088;2023-04-24T00:30:06;11.90;84.50
69626;DHT22;56847;51.984;5.088;2023-04-24T00:32:35;11.90;84.50
69626;DHT22;56847;51.984;5.088;2023-04-24T00:35:02;11.90;84.60
69626;DHT22;56847;51.984;5.088;2023-04-24T00:37:30;11.90;84.50
69626;DHT22;56847;51.984;5.088;2023-04-24T00:39:57;11.90;84.70
69626;DHT22;56847;51.984;5.088;2023-04-24T00:42:27;11.90;84.80
69626;DHT22;56847;51.984;5.088;2023-04-24T00:44:55;11.90;84.80
69626;DHT22;56847;51.984;5.088;2023-04-24T00:47:22;11.90;84.70
69626;DHT22;56847;51.984;5.088;2023-04-24T00:49:52;12.00;84.70
69626;DHT22;56847;51.984;5.088;2023-04-24T00:52:19;12.00;84.60
69626;DHT22;56847;51.984;5.088;2023-04-24T00:54:47;12.00;84.70
69626;DHT22;56847;51.984;5.088;2023-04-24T00:57:14;12.00;84.70
69626;DHT22;56847;51.984;5.088;2023-04-24T00:59:43;11.90;84.70
69626;DHT22;56847;51.984;5.088;2023-04-24T01:02:11;11.90;84.80
69626;DHT22;56847;51.984;5.088;2023-04-24T01:04:39;11.90;84.80
69626;DHT22;56847;51.984;5.088;2023-04-24T01:07:07;11.90;84.90
69626;DHT22;56847;51.984;5.088;2023-04-24T01:09:40;11.90;84.90
69626;DHT22;56847;51.984;5.088;2023-04-24T01:12:10;11.90;84.80
69626;DHT22;56847;51.984;5.088;2023-04-24T01:14:39;11.90;85.10
69626;DHT22;56847;51.984;5.088;2023-04-24T01:17:07;11.90;85.10
69626;DHT22;56847;51.984;5.088;2023-04-24T01:19:37;12.00;85.20
69626;DHT22;56847;51.984;5.088;2023-04-24T01:22:15;12.00;85.10
69626;DHT22;56847;51.984;5.088;2023-04-24T01:24:43;12.00;85.10
69626;DHT22;56847;51.984;5.088;2023-04-24T01:27:12;12.00;85.10
69626;DHT22;56847;51.984;5.088;2023-04-24T01:29:39;12.00;85.10
69626;DHT22;56847;51.984;5.088;2023-04-24T01:32:09;12.00;85.10
69626;DHT22;56847;51.984;5.088;2023-04-24T01:34:37;12.00;85.30
69626;DHT22;56847;51.984;5.088;2023-04-24T01:37:05;12.00;85.10
69626;DHT22;56847;51.984;5.088;2023-04-24T01:39:32;12.00;85.20
69626;DHT22;56847;51.984;5.088;2023-04-24T01:42:00;12.00;85.30
69626;DHT22;56847;51.984;5.088;2023-04-24T01:44:31;12.00;85.20
69626;DHT22;56847;51.984;5.088;2023-04-24T01:47:00;12.00;85.10
69626;DHT22;56847;51.984;5.088;2023-04-24T01:49:31;12.00;85.20
69626;DHT22;56847;51.984;5.088;2023-04-24T01:52:04;12.00;85.00
69626;DHT22;56847;51.984;5.088;2023-04-24T01:54:31;12.00;85.10
69626;DHT22;56847;51.984;5.088;2023-04-24T01:56:59;12.00;85.10
69626;DHT22;56847;51.984;5.088;2023-04-24T01:59:33;12.00;85.10
69626;DHT22;56847;51.984;5.088;2023-04-24T02:02:03;12.00;85.10
69626;DHT22;56847;51.984;5.088;2023-04-24T02:04:31;12.00;84.90
69626;DHT22;56847;51.984;5.088;2023-04-24T02:06:58;12.00;85.00
69626;DHT22;56847;51.984;5.088;2023-04-24T02:09:33;12.00;85.20
69626;DHT22;56847;51.984;5.088;2023-04-24T02:12:02;12.00;85.20
69626;DHT22;56847;51.984;5.088;2023-04-24T02:14:30;12.00;85.30
69626;DHT22;56847;51.984;5.088;2023-04-24T02:16:57;12.00;85.10
69626;DHT22;56847;51.984;5.088;2023-04-24T02:19:24;12.00;85.20
69626;DHT22;56847;51.984;5.088;2023-04-24T02:21:53;12.00;85.20
69626;DHT22;56847;51.984;5.088;2023-04-24T02:24:20;12.00;85.20
69626;DHT22;56847;51.984;5.088;2023-04-24T02:26:48;12.00;85.30
69626;DHT22;56847;51.984;5.088;2023-04-24T02:29:20;12.10;85.10
69626;DHT22;56847;51.984;5.088;2023-04-24T02:31:49;12.10;85.00
69626;DHT22;56847;51.984;5.088;2023-04-24T02:34:19;12.00;85.20
69626;DHT22;56847;51.984;5.088;2023-04-24T02:36:47;12.10;85.10
69626;DHT22;56847;51.984;5.088;2023-04-24T02:39:15;12.00;85.10
69626;DHT22;56847;51.984;5.088;2023-04-24T02:41:45;12.00;85.10
69626;DHT22;56847;51.984;5.088;2023-04-24T02:44:14;11.90;85.10
69626;DHT22;56847;51.984;5.088;2023-04-24T02:46:46;11.90;85.20
69626;DHT22;56847;51.984;5.088;2023-04-24T02:49:24;11.90;85.50
69626;DHT22;56847;51.984;5.088;2023-04-24T02:51:54;11.90;85.60
69626;DHT22;56847;51.984;5.088;2023-04-24T02:54:21;11.80;85.70
69626;DHT22;56847;51.984;5.088;2023-04-24T02:56:49;11.80;85.70
69626;DHT22;56847;51.984;5.088;2023-04-24T02:59:17;11.80;85.90
69626;DHT22;56847;51.984;5.088;2023-04-24T03:01:49;11.80;85.90
69626;DHT22;56847;51.984;5.088;2023-04-24T03:04:21;11.80;86.10
69626;DHT22;56847;51.984;5.088;2023-04-24T03:06:52;11.80;86.30
69626;DHT22;56847;51.984;5.088;2023-04-24T03:09:24;11.80;86.10
69626;DHT22;56847;51.984;5.088;2023-04-24T03:11:53;11.80;86.00
69626;DHT22;56847;51.984;5.088;2023-04-24T03:14:22;11.80;85.50
69626;DHT22;56847;51.984;5.088;2023-04-24T03:16:58;11.70;86.10
69626;DHT22;56847;51.984;5.088;2023-04-24T03:19:33;11.70;86.30
69626;DHT22;56847;51.984;5.088;2023-04-24T03:22:09;11.70;86.30
69626;DHT22;56847;51.984;5.088;2023-04-24T03:24:38;11.80;86.40
69626;DHT22;56847;51.984;5.088;2023-04-24T03:27:15;11.70;86.30
69626;DHT22;56847;51.984;5.088;2023-04-24T03:29:58;11.70;86.20
69626;DHT22;56847;51.984;5.088;2023-04-24T03:32:40;11.70;86.30
69626;DHT22;56847;51.984;5.088;2023-04-24T03:35:10;11.70;86.20
69626;DHT22;56847;51.984;5.088;2023-04-24T03:37:41;11.80;86.40
69626;DHT22;56847;51.984;5.088;2023-04-24T03:40:38;11.80;86.30
69626;DHT22;56847;51.984;5.088;2023-04-24T03:43:37;11.80;86.40
69626;DHT22;56847;51.984;5.088;2023-04-24T03:46:13;11.80;86.50
69626;DHT22;56847;51.984;5.088;2023-04-24T03:48:56;11.80;86.40
69626;DHT22;56847;51.984;5.088;2023-04-24T03:51:28;11.80;86.40
69626;DHT22;56847;51.984;5.088;2023-04-24T03:54:14;11.80;86.10
69626;DHT22;56847;51.984;5.088;2023-04-24T03:56:41;11.70;86.00
69626;DHT22;56847;51.984;5.088;2023-04-24T03:59:09;11.70;86.00
69626;DHT22;56847;51.984;5.088;2023-04-24T04:01:38;11.60;86.30
69626;DHT22;56847;51.984;5.088;2023-04-24T04:04:17;11.60;86.40
69626;DHT22;56847;51.984;5.088;2023-04-24T04:06:47;11.60;86.40
69626;DHT22;56847;51.984;5.088;2023-04-24T04:09:19;11.50;86.30
69626;DHT22;56847;51.984;5.088;2023-04-24T04:11:47;11.50;86.10
69626;DHT22;56847;51.984;5.088;2023-04-24T04:14:15;11.50;86.30
69626;DHT22;56847;51.984;5.088;2023-04-24T04:16:46;11.40;86.20
69626;DHT22;56847;51.984;5.088;2023-04-24T04:19:14;11.40;86.30
69626;DHT22;56847;51.984;5.088;2023-04-24T04:21:42;11.40;86.40
69626;DHT22;56847;51.984;5.088;2023-04-24T04:24:19;11.30;86.30
69626;DHT22;56847;51.984;5.088;2023-04-24T04:26:47;11.30;86.40
69626;DHT22;56847;51.984;5.088;2023-04-24T04:29:28;11.30;86.40
69626;DHT22;56847;51.984;5.088;2023-04-24T04:32:05;11.20;86.40
69626;DHT22;56847;51.984;5.088;2023-04-24T04:34:35;11.20;86.60
69626;DHT22;56847;51.984;5.088;2023-04-24T04:37:08;11.20;86.90
69626;DHT22;56847;51.984;5.088;2023-04-24T04:39:46;11.30;86.70
69626;DHT22;56847;51.984;5.088;2023-04-24T04:42:20;11.30;86.80
69626;DHT22;56847;51.984;5.088;2023-04-24T04:44:51;11.30;86.50
69626;DHT22;56847;51.984;5.088;2023-04-24T04:47:25;11.20;86.70
69626;DHT22;56847;51.984;5.088;2023-04-24T04:50:01;11.20;86.80
69626;DHT22;56847;51.984;5.088;2023-04-24T04:52:28;11.20;86.90
69626;DHT22;56847;51.984;5.088;2023-04-24T04:55:08;11.20;86.80
69626;DHT22;56847;51.984;5.088;2023-04-24T04:58:04;11.20;86.80
69626;DHT22;56847;51.984;5.088;2023-04-24T05:00:31;11.20;86.60
69626;DHT22;56847;51.984;5.088;2023-04-24T05:03:07;11.20;86.70
69626;DHT22;56847;51.984;5.088;2023-04-24T05:05:49;11.20;86.60
69626;DHT22;56847;51.984;5.088;2023-04-24T05:08:18;11.20;86.60
69626;DHT22;56847;51.984;5.088;2023-04-24T05:10:54;11.20;86.50
69626;DHT22;56847;51.984;5.088;2023-04-24T05:13:22;11.20;86.70
69626;DHT22;56847;51.984;5.088;2023-04-24T05:16:09;11.20;86.80
69626;DHT22;56847;51.984;5.088;2023-04-24T05:18:36;11.20;86.70
69626;DHT22;56847;51.984;5.088;2023-04-24T05:21:05;11.10;86.60
69626;DHT22;56847;51.984;5.088;2023-04-24T05:23:32;11.10;86.80
69626;DHT22;56847;51.984;5.088;2023-04-24T05:26:00;11.10;87.00
69626;DHT22;56847;51.984;5.088;2023-04-24T05:28:27;11.10;87.20
69626;DHT22;56847;51.984;5.088;2023-04-24T05:31:03;11.20;87.00
69626;DHT22;56847;51.984;5.088;2023-04-24T05:33:31;11.20;87.10
69626;DHT22;56847;51.984;5.088;2023-04-24T05:35:58;11.20;87.10
69626;DHT22;56847;51.984;5.088;2023-04-24T05:38:25;11.20;87.10
69626;DHT22;56847;51.984;5.088;2023-04-24T05:40:52;11.30;87.10
69626;DHT22;56847;51.984;5.088;2023-04-24T05:43:19;11.30;87.10
69626;DHT22;56847;51.984;5.088;2023-04-24T05:45:46;11.30;86.90
69626;DHT22;56847;51.984;5.088;2023-04-24T05:48:13;11.30;86.90
69626;DHT22;56847;51.984;5.088;2023-04-24T05:50:40;11.40;87.00
69626;DHT22;56847;51.984;5.088;2023-04-24T05:53:08;11.40;86.90
69626;DHT22;56847;51.984;5.088;2023-04-24T05:55:37;11.40;87.00
69626;DHT22;56847;51.984;5.088;2023-04-24T05:58:04;11.40;87.00
69626;DHT22;56847;51.984;5.088;2023-04-24T06:00:34;11.40;87.00
69626;DHT22;56847;51.984;5.088;2023-04-24T06:03:05;11.40;86.80
69626;DHT22;56847;51.984;5.088;2023-04-24T06:05:33;11.40;87.00
69626;DHT22;56847;51.984;5.088;2023-04-24T06:08:02;11.40;87.00
69626;DHT22;56847;51.984;5.088;2023-04-24T06:10:33;11.40;87.00
69626;DHT22;56847;51.984;5.088;2023-04-24T06:13:00;11.30;87.10
69626;DHT22;56847;51.984;5.088;2023-04-24T06:15:30;11.30;87.30
69626;DHT22;56847;51.984;5.088;2023-04-24T06:18:06;11.20;87.40
69626;DHT22;56847;51.984;5.088;2023-04-24T06:20:39;11.20;87.60
69626;DHT22;56847;51.984;5.088;2023-04-24T06:23:10;11.20;87.10
69626;DHT22;56847;51.984;5.088;2023-04-24T06:25:43;11.10;87.50
69626;DHT22;56847;51.984;5.088;2023-04-24T06:28:11;11.10;87.40
69626;DHT22;56847;51.984;5.088;2023-04-24T06:30:38;11.10;87.40
69626;DHT22;56847;51.984;5.088;2023-04-24T06:33:05;11.00;87.00
69626;DHT22;56847;51.984;5.088;2023-04-24T06:35:46;10.90;87.20
69626;DHT22;56847;51.984;5.088;2023-04-24T06:38:13;10.80;87.40
69626;DHT22;56847;51.984;5.088;2023-04-24T06:40:43;10.80;87.60
69626;DHT22;56847;51.984;5.088;2023-04-24T06:43:10;10.80;87.40
69626;DHT22;56847;51.984;5.088;2023-04-24T06:45:38;10.80;87.30
69626;DHT22;56847;51.984;5.088;2023-04-24T06:48:06;10.80;87.20
69626;DHT22;56847;51.984;5.088;2023-04-24T06:50:33;10.70;87.50
69626;DHT22;56847;51.984;5.088;2023-04-24T06:53:01;10.70;87.50
69626;DHT22;56847;51.984;5.088;2023-04-24T06:55:28;10.70;87.60
69626;DHT22;56847;51.984;5.088;2023-04-24T06:57:55;10.80;87.60
69626;DHT22;56847;51.984;5.088;2023-04-24T07:00:22;10.70;87.50
69626;DHT22;56847;51.984;5.088;2023-04-24T07:03:01;10.70;87.40
69626;DHT22;56847;51.984;5.088;2023-04-24T07:05:31;10.70;87.80
69626;DHT22;56847;51.984;5.088;2023-04-24T07:08:00;10.70;87.70
69626;DHT22;56847;51.984;5.088;2023-04-24T07:10:29;10.80;87.70
69626;DHT22;56847;51.984;5.088;2023-04-24T07:12:56;10.80;87.70
69626;DHT22;56847;51.984;5.088;2023-04-24T07:15:24;10.80;87.70
69626;DHT22;56847;51.984;5.088;2023-04-24T07:17:52;10.80;87.80
69626;DHT22;56847;51.984;5.088;2023-04-24T07:20:19;10.80;87.70
69626;DHT22;56847;51.984;5.088;2023-04-24T07:22:47;10.80;87.80
69626;DHT22;56847;51.984;5.088;2023-04-24T07:25:19;10.80;87.90
69626;DHT22;56847;51.984;5.088;2023-04-24T07:27:46;10.80;88.00
69626;DHT22;56847;51.984;5.088;2023-04-24T07:30:13;10.90;87.80
69626;DHT22;56847;51.984;5.088;2023-04-24T07:32:40;10.90;87.70
69626;DHT22;56847;51.984;5.088;2023-04-24T07:35:08;10.90;87.80
69626;DHT22;56847;51.984;5.088;2023-04-24T07:37:36;10.90;87.70
69626;DHT22;56847;51.984;5.088;2023-04-24T07:40:04;11.00;87.70
69626;DHT22;56847;51.984;5.088;2023-04-24T07:42:31;11.00;87.50
69626;DHT22;56847;51.984;5.088;2023-04-24T07:45:01;11.00;87.50
69626;DHT22;56847;51.984;5.088;2023-04-24T07:47:31;11.00;87.40
69626;DHT22;56847;51.984;5.088;2023-04-24T07:50:02;11.00;87.00
69626;DHT22;56847;51.984;5.088;2023-04-24T07:52:29;11.00;87.10
69626;DHT22;56847;51.984;5.088;2023-04-24T07:55:00;11.00;87.20
69626;DHT22;56847;51.984;5.088;2023-04-24T07:57:28;11.00;87.00
69626;DHT22;56847;51.984;5.088;2023-04-24T07:59:56;11.00;86.90
69626;DHT22;56847;51.984;5.088;2023-04-24T08:02:23;11.00;87.10
69626;DHT22;56847;51.984;5.088;2023-04-24T08:04:53;11.00;87.00
69626;DHT22;56847;51.984;5.088;2023-04-24T08:07:21;11.00;87.00
69626;DHT22;56847;51.984;5.088;2023-04-24T08:09:48;11.00;87.10
69626;DHT22;56847;51.984;5.088;2023-04-24T08:12:15;11.10;86.70
69626;DHT22;56847;51.984;5.088;2023-04-24T08:14:45;11.10;86.70
69626;DHT22;56847;51.984;5.088;2023-04-24T08:17:12;11.20;86.10
69626;DHT22;56847;51.984;5.088;2023-04-24T08:19:45;11.20;85.70
69626;DHT22;56847;51.984;5.088;2023-04-24T08:22:16;11.30;85.20
69626;DHT22;56847;51.984;5.088;2023-04-24T08:24:46;11.30;85.80
69626;DHT22;56847;51.984;5.088;2023-04-24T08:27:15;11.50;85.90
69626;DHT22;56847;51.984;5.088;2023-04-24T08:29:45;11.50;84.10
69626;DHT22;56847;51.984;5.088;2023-04-24T08:32:12;11.50;83.10
69626;DHT22;56847;51.984;5.088;2023-04-24T08:34:44;11.50;82.80
69626;DHT22;56847;51.984;5.088;2023-04-24T08:37:15;11.50;83.20
69626;DHT22;56847;51.984;5.088;2023-04-24T08:39:45;11.60;83.30
69626;DHT22;56847;51.984;5.088;2023-04-24T08:42:13;11.60;83.30
69626;DHT22;56847;51.984;5.088;2023-04-24T08:44:44;11.70;83.30
69626;DHT22;56847;51.984;5.088;2023-04-24T08:47:12;11.70;82.40
69626;DHT22;56847;51.984;5.088;2023-04-24T08:49:43;11.70;81.60
69626;DHT22;56847;51.984;5.088;2023-04-24T08:52:10;11.70;80.90
69626;DHT22;56847;51.984;5.088;2023-04-24T08:54:42;11.60;81.30
69626;DHT22;56847;51.984;5.088;2023-04-24T08:57:14;11.70;81.10
69626;DHT22;56847;51.984;5.088;2023-04-24T08:59:42;11.80;80.90
69626;DHT22;56847;51.984;5.088;2023-04-24T09:02:10;11.90;81.50
69626;DHT22;56847;51.984;5.088;2023-04-24T09:04:40;11.90;81.10
69626;DHT22;56847;51.984;5.088;2023-04-24T09:07:08;11.90;79.60
69626;DHT22;56847;51.984;5.088;2023-04-24T09:09:38;11.90;79.90
69626;DHT22;56847;51.984;5.088;2023-04-24T09:12:06;12.00;80.40
69626;DHT22;56847;51.984;5.088;2023-04-24T09:14:33;12.10;79.30
69626;DHT22;56847;51.984;5.088;2023-04-24T09:17:00;12.10;78.50
69626;DHT22;56847;51.984;5.088;2023-04-24T09:19:27;12.20;77.50
69626;DHT22;56847;51.984;5.088;2023-04-24T09:21:54;12.30;79.10
69626;DHT22;56847;51.984;5.088;2023-04-24T09:24:22;12.60;79.90
69626;DHT22;56847;51.984;5.088;2023-04-24T09:26:57;12.70;77.30
69626;DHT22;56847;51.984;5.088;2023-04-24T09:29:26;12.80;75.90
69626;DHT22;56847;51.984;5.088;2023-04-24T09:31:54;12.80;74.50
69626;DHT22;56847;51.984;5.088;2023-04-24T09:34:22;12.70;71.60
69626;DHT22;56847;51.984;5.088;2023-04-24T09:36:50;12.50;73.20
69626;DHT22;56847;51.984;5.088;2023-04-24T09:39:21;12.50;72.90
69626;DHT22;56847;51.984;5.088;2023-04-24T09:41:52;12.40;74.50
69626;DHT22;56847;51.984;5.088;2023-04-24T09:44:27;12.50;75.20
69626;DHT22;56847;51.984;5.088;2023-04-24T09:46:56;12.50;74.40
69626;DHT22;56847;51.984;5.088;2023-04-24T09:49:26;12.50;74.50
69626;DHT22;56847;51.984;5.088;2023-04-24T09:52:08;12.50;73.40
69626;DHT22;56847;51.984;5.088;2023-04-24T09:54:35;12.60;73.20
69626;DHT22;56847;51.984;5.088;2023-04-24T09:57:11;12.60;73.50
69626;DHT22;56847;51.984;5.088;2023-04-24T09:59:42;12.60;72.10
69626;DHT22;56847;51.984;5.088;2023-04-24T10:02:18;12.50;73.50
69626;DHT22;56847;51.984;5.088;2023-04-24T10:04:57;12.50;74.60
69626;DHT22;56847;51.984;5.088;2023-04-24T10:07:26;12.60;75.90
69626;DHT22;56847;51.984;5.088;2023-04-24T10:09:54;12.60;73.30
69626;DHT22;56847;51.984;5.088;2023-04-24T10:12:26;12.70;74.30
69626;DHT22;56847;51.984;5.088;2023-04-24T10:14:53;12.80;75.40
69626;DHT22;56847;51.984;5.088;2023-04-24T10:17:25;12.90;74.70
69626;DHT22;56847;51.984;5.088;2023-04-24T10:19:52;13.00;74.70
69626;DHT22;56847;51.984;5.088;2023-04-24T10:22:21;13.20;73.00
69626;DHT22;56847;51.984;5.088;2023-04-24T10:24:50;13.40;75.00
69626;DHT22;56847;51.984;5.088;2023-04-24T10:27:20;13.50;73.90
69626;DHT22;56847;51.984;5.088;2023-04-24T10:29:49;13.50;73.60
69626;DHT22;56847;51.984;5.088;2023-04-24T10:32:18;13.40;70.40
69626;DHT22;56847;51.984;5.088;2023-04-24T10:34:46;13.10;71.40
69626;DHT22;56847;51.984;5.088;2023-04-24T10:37:14;12.90;72.00
69626;DHT22;56847;51.984;5.088;2023-04-24T10:39:42;12.80;73.10
69626;DHT22;56847;51.984;5.088;2023-04-24T10:42:16;12.80;72.70
69626;DHT22;56847;51.984;5.088;2023-04-24T10:44:43;12.80;73.50
69626;DHT22;56847;51.984;5.088;2023-04-24T10:47:14;12.90;75.40
69626;DHT22;56847;51.984;5.088;2023-04-24T10:49:41;13.20;74.30
69626;DHT22;56847;51.984;5.088;2023-04-24T10:52:09;13.20;74.30
69626;DHT22;56847;51.984;5.088;2023-04-24T10:54:45;13.50;75.20
69626;DHT22;56847;51.984;5.088;2023-04-24T11:00:19;13.70;74.20
69626;DHT22;56847;51.984;5.088;2023-04-24T11:02:48;13.90;75.70
69626;DHT22;56847;51.984;5.088;2023-04-24T11:05:17;14.00;74.30
69626;DHT22;56847;51.984;5.088;2023-04-24T11:10:59;14.20;72.20
69626;DHT22;56847;51.984;5.088;2023-04-24T11:14:00;14.20;73.00
69626;DHT22;56847;51.984;5.088;2023-04-24T11:18:52;14.20;71.20
69626;DHT22;56847;51.984;5.088;2023-04-24T11:21:31;14.20;71.00
69626;DHT22;56847;51.984;5.088;2023-04-24T11:24:25;14.10;69.50
69626;DHT22;56847;51.984;5.088;2023-04-24T11:29:47;14.10;71.90
69626;DHT22;56847;51.984;5.088;2023-04-24T11:35:13;13.70;71.90
69626;DHT22;56847;51.984;5.088;2023-04-24T11:37:48;13.40;71.90
69626;DHT22;56847;51.984;5.088;2023-04-24T11:40:38;13.10;73.10
69626;DHT22;56847;51.984;5.088;2023-04-24T11:43:07;13.00;74.40
69626;DHT22;56847;51.984;5.088;2023-04-24T11:45:35;12.90;74.70
69626;DHT22;56847;51.984;5.088;2023-04-24T11:48:03;12.80;74.00
69626;DHT22;56847;51.984;5.088;2023-04-24T11:50:30;12.80;74.10
69626;DHT22;56847;51.984;5.088;2023-04-24T11:52:57;12.70;74.20
69626;DHT22;56847;51.984;5.088;2023-04-24T11:55:27;12.60;75.40
69626;DHT22;56847;51.984;5.088;2023-04-24T11:57:58;12.50;73.30
69626;DHT22;56847;51.984;5.088;2023-04-24T12:00:28;12.20;74.00
69626;DHT22;56847;51.984;5.088;2023-04-24T12:03:11;12.00;75.10
69626;DHT22;56847;51.984;5.088;2023-04-24T12:05:41;11.90;76.70
69626;DHT22;56847;51.984;5.088;2023-04-24T12:08:09;11.70;76.00
69626;DHT22;56847;51.984;5.088;2023-04-24T12:10:36;11.60;77.70
69626;DHT22;56847;51.984;5.088;2023-04-24T12:13:03;11.60;78.30
69626;DHT22;56847;51.984;5.088;2023-04-24T12:15:33;11.60;78.70
69626;DHT22;56847;51.984;5.088;2023-04-24T12:18:00;11.60;78.10
69626;DHT22;56847;51.984;5.088;2023-04-24T12:20:31;11.70;79.00
69626;DHT22;56847;51.984;5.088;2023-04-24T12:23:01;11.90;79.10
69626;DHT22;56847;51.984;5.088;2023-04-24T12:25:32;12.00;79.90
69626;DHT22;56847;51.984;5.088;2023-04-24T12:30:50;12.30;77.20
69626;DHT22;56847;51.984;5.088;2023-04-24T12:33:20;12.30;76.10
69626;DHT22;56847;51.984;5.088;2023-04-24T12:35:52;12.30;76.40
69626;DHT22;56847;51.984;5.088;2023-04-24T12:38:24;12.30;76.30
69626;DHT22;56847;51.984;5.088;2023-04-24T12:41:09;12.30;77.00
69626;DHT22;56847;51.984;5.088;2023-04-24T21:04:56;9.90;83.40
69626;DHT22;56847;51.984;5.088;2023-04-24T21:07:26;9.80;83.00
69626;DHT22;56847;51.984;5.088;2023-04-24T21:09:53;9.80;83.30
69626;DHT22;56847;51.984;5.088;2023-04-24T21:12:20;9.80;83.30
69626;DHT22;56847;51.984;5.088;2023-04-24T21:14:47;9.80;83.50
69626;DHT22;56847;51.984;5.088;2023-04-24T21:17:17;9.80;83.00
69626;DHT22;56847;51.984;5.088;2023-04-24T21:19:44;9.80;83.40
69626;DHT22;56847;51.984;5.088;2023-04-24T21:22:11;9.80;83.50
69626;DHT22;56847;51.984;5.088;2023-04-24T21:24:39;9.80;83.00
69626;DHT22;56847;51.984;5.088;2023-04-24T21:27:06;9.80;83.20
69626;DHT22;56847;51.984;5.088;2023-04-24T21:29:34;9.80;83.20
69626;DHT22;56847;51.984;5.088;2023-04-24T21:32:02;9.70;83.20
69626;DHT22;56847;51.984;5.088;2023-04-24T21:34:29;9.70;83.10
69626;DHT22;56847;51.984;5.088;2023-04-24T21:36:57;9.70;83.10
69626;DHT22;56847;51.984;5.088;2023-04-24T21:39:24;9.70;83.20
69626;DHT22;56847;51.984;5.088;2023-04-24T21:41:51;9.70;83.50
69626;DHT22;56847;51.984;5.088;2023-04-24T21:44:18;9.60;83.30
69626;DHT22;56847;51.984;5.088;2023-04-24T21:46:45;9.60;83.40
69626;DHT22;56847;51.984;5.088;2023-04-24T21:49:12;9.60;83.40
69626;DHT22;56847;51.984;5.088;2023-04-24T21:51:39;9.60;83.50
69626;DHT22;56847;51.984;5.088;2023-04-24T21:54:06;9.60;83.70
69626;DHT22;56847;51.984;5.088;2023-04-24T21:56:36;9.50;83.70
69626;DHT22;56847;51.984;5.088;2023-04-24T21:59:03;9.50;84.00
69626;DHT22;56847;51.984;5.088;2023-04-24T22:01:30;9.50;84.10
69626;DHT22;56847;51.984;5.088;2023-04-24T22:04:01;9.50;84.10
69626;DHT22;56847;51.984;5.088;2023-04-24T22:06:31;9.50;84.10
69626;DHT22;56847;51.984;5.088;2023-04-24T22:09:01;9.50;84.30
69626;DHT22;56847;51.984;5.088;2023-04-24T22:11:30;9.50;84.20
69626;DHT22;56847;51.984;5.088;2023-04-24T22:13:57;9.50;84.10
69626;DHT22;56847;51.984;5.088;2023-04-24T22:16:25;9.50;84.20
69626;DHT22;56847;51.984;5.088;2023-04-24T22:18:54;9.50;84.20
69626;DHT22;56847;51.984;5.088;2023-04-24T22:21:21;9.50;84.20
69626;DHT22;56847;51.984;5.088;2023-04-24T22:23:48;9.40;84.30
69626;DHT22;56847;51.984;5.088;2023-04-24T22:26:16;9.40;84.20
69626;DHT22;56847;51.984;5.088;2023-04-24T22:28:44;9.40;84.20
69626;DHT22;56847;51.984;5.088;2023-04-24T22:31:14;9.40;84.30
69626;DHT22;56847;51.984;5.088;2023-04-24T22:33:42;9.40;84.50
69626;DHT22;56847;51.984;5.088;2023-04-24T22:36:12;9.40;84.40
69626;DHT22;56847;51.984;5.088;2023-04-24T22:38:39;9.40;84.30
69626;DHT22;56847;51.984;5.088;2023-04-24T22:41:07;9.30;84.30
69626;DHT22;56847;51.984;5.088;2023-04-24T22:43:35;9.30;84.40
69626;DHT22;56847;51.984;5.088;2023-04-24T22:46:05;9.30;84.20
69626;DHT22;56847;51.984;5.088;2023-04-24T22:48:32;9.20;84.60
69626;DHT22;56847;51.984;5.088;2023-04-24T22:51:02;9.20;84.50
69626;DHT22;56847;51.984;5.088;2023-04-24T22:53:29;9.20;84.60
69626;DHT22;56847;51.984;5.088;2023-04-24T22:55:56;9.20;84.40
69626;DHT22;56847;51.984;5.088;2023-04-24T22:58:24;9.20;84.50
69626;DHT22;56847;51.984;5.088;2023-04-24T23:00:51;9.10;84.60
69626;DHT22;56847;51.984;5.088;2023-04-24T23:03:18;9.10;84.70
69626;DHT22;56847;51.984;5.088;2023-04-24T23:05:45;9.10;84.80
69626;DHT22;56847;51.984;5.088;2023-04-24T23:08:12;9.10;84.80
69626;DHT22;56847;51.984;5.088;2023-04-24T23:10:40;9.10;84.70
69626;DHT22;56847;51.984;5.088;2023-04-24T23:13:07;9.10;84.80
69626;DHT22;56847;51.984;5.088;2023-04-24T23:15:42;9.10;84.60
69626;DHT22;56847;51.984;5.088;2023-04-24T23:18:11;9.10;84.80
69626;DHT22;56847;51.984;5.088;2023-04-24T23:20:39;9.10;84.70
69626;DHT22;56847;51.984;5.088;2023-04-24T23:23:07;9.10;84.90
69626;DHT22;56847;51.984;5.088;2023-04-24T23:25:34;9.00;84.80
69626;DHT22;56847;51.984;5.088;2023-04-24T23:28:04;9.00;85.00
69626;DHT22;56847;51.984;5.088;2023-04-24T23:30:34;9.00;85.10
69626;DHT22;56847;51.984;5.088;2023-04-24T23:33:01;9.00;84.90
69626;DHT22;56847;51.984;5.088;2023-04-24T23:35:28;9.00;85.20
69626;DHT22;56847;51.984;5.088;2023-04-24T23:37:55;9.00;85.10
69626;DHT22;56847;51.984;5.088;2023-04-24T23:40:23;9.00;85.10
69626;DHT22;56847;51.984;5.088;2023-04-24T23:42:50;9.00;85.00
69626;DHT22;56847;51.984;5.088;2023-04-24T23:45:32;8.90;85.00
69626;DHT22;56847;51.984;5.088;2023-04-24T23:48:00;8.90;85.10
69626;DHT22;56847;51.984;5.088;2023-04-24T23:50:27;8.90;85.10
69626;DHT22;56847;51.984;5.088;2023-04-24T23:52:54;8.90;85.00
69626;DHT22;56847;51.984;5.088;2023-04-24T23:55:22;8.90;84.90
69626;DHT22;56847;51.984;5.088;2023-04-24T23:57:49;8.80;85.00
